Time;durP1;ratioP1;P1;durP2;ratioP2;P2;SDS_P1;SDS_P2;PMS_P1;PMS_P2;Temp;Humidity;BMP_temperature;BMP_pressure;BME280_temperature;BME280_humidity;BME280_pressure;Samples;Min_cycle;Max_cycle;Signal;HPM_P1;HPM_P2
2023/01/03 04:56:46;;;;;;;8.30;1.73;;;12.60;58.90;;;;;;5037239;23;20132;-74
2023/01/03 04:59:11;;;;;;;9.20;0.90;;;12.60;59.30;;;;;;4882225;29;20088;-74
2023/01/03 05:01:37;;;;;;;6.00;0.82;;;12.60;59.70;;;;;;4866022;29;20049;-74
2023/01/03 05:04:03;;;;;;;4.00;0.80;;;12.60;60.00;;;;;;4882126;29;20106;-76
2023/01/03 05:06:29;;;;;;;7.25;1.00;;;12.60;61.20;;;;;;4864809;29;20048;-78
2023/01/03 05:08:55;;;;;;;5.63;0.82;;;12.70;60.80;;;;;;4882048;29;20117;-75
2023/01/03 05:11:21;;;;;;;13.27;1.13;;;12.80;61.20;;;;;;4850221;29;20052;-78
2023/01/03 05:13:47;;;;;;;12.38;1.27;;;12.90;61.50;;;;;;4881212;29;20063;-75
2023/01/03 05:16:14;;;;;;;9.40;1.75;;;13.00;61.90;;;;;;4885895;29;20056;-78
2023/01/03 05:18:41;;;;;;;17.40;1.40;;;13.20;61.90;;;;;;4881863;29;20049;-77
2023/01/03 05:26:47;;;;;;;9.82;1.58;;;13.80;61.90;;;;;;4865428;29;20061;-80
2023/01/03 05:29:15;;;;;;;13.95;2.08;;;14.00;61.80;;;;;;4881899;29;20048;-80
2023/01/03 05:31:44;;;;;;;11.50;1.05;;;14.10;61.90;;;;;;4864212;29;20053;-75
2023/01/03 05:34:10;;;;;;;9.02;1.17;;;14.20;62.30;;;;;;4865161;29;20049;-75
2023/01/03 05:36:35;;;;;;;11.95;1.10;;;14.30;62.50;;;;;;4865736;29;20056;-74
2023/01/03 05:39:05;;;;;;;6.68;0.77;;;14.30;62.90;;;;;;4849576;29;20486;-79
2023/01/03 05:44:15;;;;;;;18.10;2.00;;;14.50;63.30;;;;;;4881311;29;20460;-76
2023/01/03 05:46:43;;;;;;;11.48;1.65;;;14.40;63.60;;;;;;4880892;29;20049;-81
2023/01/03 05:49:09;;;;;;;13.40;1.27;;;14.50;63.60;;;;;;4880416;29;20044;-77
2023/01/03 05:51:35;;;;;;;8.63;1.55;;;14.50;64.10;;;;;;4880726;29;20041;-79
2023/01/03 05:54:01;;;;;;;7.18;1.20;;;14.60;64.60;;;;;;4880774;29;20041;-82
2023/01/03 05:56:29;;;;;;;7.32;0.98;;;14.70;62.00;;;;;;4873177;29;20052;-79
2023/01/03 05:58:54;;;;;;;13.07;1.25;;;14.80;64.40;;;;;;4881467;29;20478;-81
2023/01/03 06:01:20;;;;;;;8.57;0.93;;;14.90;64.50;;;;;;4865294;29;20123;-77
2023/01/03 06:03:47;;;;;;;11.15;2.05;;;15.00;64.70;;;;;;4864703;29;20053;-79
2023/01/03 06:06:15;;;;;;;9.77;1.40;;;15.00;64.50;;;;;;4865041;29;20048;-79
2023/01/03 06:08:41;;;;;;;9.45;1.00;;;15.10;64.50;;;;;;4881244;29;20041;-81
2023/01/03 06:11:08;;;;;;;6.55;1.40;;;15.20;64.40;;;;;;4881267;29;20033;-78
2023/01/03 06:13:34;;;;;;;11.52;1.50;;;15.20;64.20;;;;;;4865121;29;20373;-82
2023/01/03 06:18:50;;;;;;;10.57;1.40;;;15.40;64.30;;;;;;4881071;29;20049;-78
2023/01/03 06:21:16;;;;;;;9.00;1.10;;;15.50;63.80;;;;;;4880666;29;20108;-85
2023/01/03 06:23:44;;;;;;;10.25;1.00;;;15.60;63.60;;;;;;4847614;29;20472;-83
2023/01/03 06:26:10;;;;;;;13.02;1.63;;;15.60;63.50;;;;;;4872462;29;20040;-83
2023/01/03 06:28:36;;;;;;;25.60;3.25;;;15.60;63.50;;;;;;4849817;29;20041;-82
2023/01/03 06:31:04;;;;;;;17.55;2.22;;;15.70;63.70;;;;;;4849440;29;20357;-82
2023/01/03 06:33:29;;;;;;;23.13;2.08;;;15.80;63.70;;;;;;4864248;29;20136;-81
2023/01/03 06:35:55;;;;;;;14.80;2.40;;;15.80;63.70;;;;;;4849402;29;20094;-79
2023/01/03 06:38:21;;;;;;;16.25;2.50;;;15.90;63.50;;;;;;4881102;29;20101;-80
2023/01/03 06:40:47;;;;;;;24.27;2.80;;;16.00;63.60;;;;;;4881039;29;20500;-81
2023/01/03 06:43:13;;;;;;;28.50;3.45;;;15.60;62.50;;;;;;4848740;29;20045;-81
2023/01/03 06:54:07;;;;;;;15.95;3.25;;;15.90;63.80;;;;;;4880063;29;20072;-84
2023/01/03 06:56:33;;;;;;;17.80;2.10;;;16.10;63.40;;;;;;4864680;29;20140;-81
2023/01/03 06:58:59;;;;;;;16.95;1.80;;;16.10;63.10;;;;;;4864421;29;20392;-81
2023/01/03 07:01:26;;;;;;;11.15;1.80;;;16.20;63.00;;;;;;4880750;29;20092;-82
2023/01/03 07:03:52;;;;;;;11.98;1.80;;;16.20;62.90;;;;;;4883141;29;20060;-81
2023/01/03 07:06:18;;;;;;;12.38;2.33;;;16.20;62.70;;;;;;4884062;29;20049;-81
2023/01/03 07:08:44;;;;;;;14.18;1.70;;;16.30;62.60;;;;;;4867691;29;20511;-82
2023/01/03 07:11:09;;;;;;;8.13;1.65;;;16.30;62.40;;;;;;4867323;29;20078;-82
2023/01/03 07:16:19;;;;;;;21.15;4.25;;;16.30;62.20;;;;;;4884414;29;20053;-81
2023/01/03 07:18:46;;;;;;;17.83;2.28;;;16.40;62.20;;;;;;4867108;29;20519;-81
2023/01/03 07:21:12;;;;;;;16.77;2.63;;;16.30;62.20;;;;;;4852959;29;20049;-82
2023/01/03 07:23:38;;;;;;;16.92;3.30;;;16.40;62.20;;;;;;4891853;29;20543;-81
2023/01/03 07:26:05;;;;;;;18.42;3.38;;;16.40;62.20;;;;;;4891895;29;20048;-82
2023/01/03 07:28:31;;;;;;;16.90;2.40;;;16.40;62.00;;;;;;4889997;29;20097;-81
2023/01/03 07:31:02;;;;;;;15.05;2.20;;;16.40;62.00;;;;;;4888051;29;20149;-84
2023/01/03 07:33:37;;;;;;;11.57;2.13;;;16.40;61.90;;;;;;4874034;29;20067;-84
2023/01/03 07:36:06;;;;;;;13.38;2.13;;;16.40;61.90;;;;;;4890455;29;20042;-82
2023/01/03 07:38:34;;;;;;;13.30;1.98;;;16.40;61.90;;;;;;4876423;29;20056;-83
2023/01/03 07:41:01;;;;;;;10.23;2.88;;;16.40;61.80;;;;;;4871681;29;20058;-82
2023/01/03 07:43:36;;;;;;;10.52;3.58;;;16.40;61.20;;;;;;4857717;29;20049;-81
2023/01/03 07:46:19;;;;;;;9.95;4.15;;;16.40;59.50;;;;;;4862266;29;20053;-82
2023/01/03 07:48:50;;;;;;;7.75;4.18;;;16.30;57.80;;;;;;4888365;29;20048;-81
2023/01/03 07:51:20;;;;;;;8.18;5.60;;;16.30;56.90;;;;;;4858482;29;20518;-84
2023/01/03 07:53:50;;;;;;;9.52;4.88;;;16.20;56.10;;;;;;4859636;29;20037;-78
2023/01/03 07:56:18;;;;;;;9.80;5.22;;;16.10;54.60;;;;;;4889448;29;20049;-75
2023/01/03 07:59:04;;;;;;;10.52;4.97;;;16.00;54.60;;;;;;4890550;29;20053;-79
2023/01/03 08:24:36;;;;;;;8.05;3.20;;;15.70;57.50;;;;;;5300913;24;20583;-82
2023/01/03 08:27:03;;;;;;;13.60;4.03;;;15.60;57.90;;;;;;4870048;29;20057;-83
2023/01/03 08:29:30;;;;;;;15.13;3.67;;;15.60;58.20;;;;;;4869861;29;20371;-82
2023/01/03 08:31:58;;;;;;;12.02;3.80;;;15.50;58.90;;;;;;4884738;29;20045;-83
2023/01/03 08:34:28;;;;;;;19.48;4.43;;;15.50;59.30;;;;;;4901490;29;20041;-80
2023/01/03 08:36:59;;;;;;;10.68;3.22;;;15.40;59.30;;;;;;4884788;29;20036;-82
2023/01/03 08:39:28;;;;;;;14.02;2.95;;;15.40;59.50;;;;;;4869134;29;20043;-80
2023/01/03 08:41:59;;;;;;;11.90;3.88;;;15.30;59.70;;;;;;4901266;29;20455;-78
2023/01/03 08:44:26;;;;;;;14.25;4.97;;;15.30;59.70;;;;;;4901207;29;20048;-80
2023/01/03 08:46:55;;;;;;;14.15;3.50;;;15.00;59.20;;;;;;4884764;29;20059;-79
2023/01/03 08:49:21;;;;;;;21.25;4.70;;;15.00;60.20;;;;;;4884727;29;20044;-80
2023/01/03 08:51:47;;;;;;;13.30;4.50;;;15.00;60.60;;;;;;4901024;29;20058;-80
2023/01/03 08:57:58;;;;;;;15.73;5.57;;;15.00;60.70;;;;;;4790969;29;20119;-80
2023/01/03 09:00:28;;;;;;;31.33;6.40;;;15.00;60.40;;;;;;4777217;29;20095;-81
2023/01/03 09:02:58;;;;;;;26.67;6.50;;;15.00;60.40;;;;;;4848782;29;20048;-82
2023/01/03 09:05:24;;;;;;;25.77;6.18;;;15.00;60.80;;;;;;4884545;29;20475;-79
2023/01/03 09:07:50;;;;;;;19.98;6.18;;;15.00;60.80;;;;;;4884214;29;20041;-82
2023/01/03 09:10:16;;;;;;;20.58;5.90;;;15.00;60.40;;;;;;4884446;29;20108;-80
2023/01/03 09:12:42;;;;;;;22.35;6.30;;;15.00;60.30;;;;;;4869003;29;20494;-80
2023/01/03 09:15:08;;;;;;;17.52;4.97;;;15.00;60.20;;;;;;4868869;29;20076;-80
2023/01/03 09:17:34;;;;;;;19.40;5.22;;;15.00;60.10;;;;;;4868661;29;20051;-82
2023/01/03 09:19:59;;;;;;;15.32;4.97;;;15.00;60.00;;;;;;4868413;29;20036;-83
2023/01/03 09:22:25;;;;;;;12.13;4.05;;;15.10;60.00;;;;;;4883251;29;20033;-81
2023/01/03 09:24:51;;;;;;;15.07;4.03;;;15.10;60.00;;;;;;4868228;29;20139;-80
2023/01/03 09:27:17;;;;;;;15.50;4.53;;;15.10;60.00;;;;;;4899572;29;20036;-82
2023/01/03 09:29:42;;;;;;;10.93;3.85;;;15.00;59.90;;;;;;4884171;29;20044;-81
2023/01/03 09:32:09;;;;;;;17.45;4.50;;;15.00;59.90;;;;;;4879339;29;20041;-80
2023/01/03 09:34:35;;;;;;;7.30;4.13;;;15.00;60.00;;;;;;4883404;29;20052;-80
2023/01/03 09:37:03;;;;;;;8.18;4.03;;;15.00;59.40;;;;;;4900414;29;20040;-80
2023/01/03 09:39:28;;;;;;;10.63;4.30;;;15.00;58.80;;;;;;4883733;29;20135;-80
2023/01/03 09:44:39;;;;;;;9.10;3.70;;;15.00;58.50;;;;;;4900450;29;20052;-85
2023/01/03 09:47:05;;;;;;;5.55;3.47;;;15.00;58.30;;;;;;4900129;29;20037;-84
2023/01/03 09:49:34;;;;;;;4.65;3.33;;;15.00;58.30;;;;;;4883879;29;20044;-81
2023/01/03 10:03:43;;;;;;;15.48;6.15;;;14.70;56.70;;;;;;4880895;29;20425;-77
2023/01/03 10:06:50;;;;;;;24.95;6.63;;;14.70;57.20;;;;;;4881121;29;20068;-78
2023/01/03 10:09:39;;;;;;;16.95;6.75;;;14.70;57.70;;;;;;4824090;29;20061;-79
2023/01/03 10:12:31;;;;;;;33.45;7.88;;;14.70;58.50;;;;;;4889121;29;20052;-76
2023/01/03 10:15:13;;;;;;;20.75;6.18;;;14.70;58.90;;;;;;4900003;29;20136;-79
2023/01/03 10:18:13;;;;;;;21.23;6.03;;;14.70;59.00;;;;;;4899816;29;20056;-82
2023/01/03 10:20:50;;;;;;;21.00;5.95;;;14.70;59.00;;;;;;4899876;29;20056;-79
2023/01/03 10:23:17;;;;;;;20.17;6.22;;;14.60;59.10;;;;;;4880897;29;20041;-80
2023/01/03 10:25:45;;;;;;;19.42;6.05;;;14.60;59.10;;;;;;4864773;29;20137;-80
2023/01/03 10:28:18;;;;;;;15.77;5.38;;;14.60;59.00;;;;;;4880958;29;20040;-80
2023/01/03 10:30:47;;;;;;;11.45;5.40;;;14.60;59.00;;;;;;4881106;29;20096;-81
2023/01/03 10:33:36;;;;;;;13.27;5.00;;;14.60;59.40;;;;;;4883118;29;20081;-80
2023/01/03 10:36:02;;;;;;;15.73;5.18;;;14.60;59.90;;;;;;4883672;29;20061;-80
2023/01/03 10:38:34;;;;;;;15.00;4.53;;;14.60;60.00;;;;;;4901722;29;20131;-80
2023/01/03 10:41:02;;;;;;;11.98;5.35;;;14.60;60.10;;;;;;4903068;29;20474;-79
2023/01/03 10:43:38;;;;;;;12.90;4.63;;;14.60;60.20;;;;;;4887201;29;20047;-76
2023/01/03 10:46:18;;;;;;;7.82;5.47;;;14.60;60.10;;;;;;4903201;29;20067;-77
2023/01/03 10:48:49;;;;;;;9.35;4.70;;;14.60;60.10;;;;;;4903111;29;20116;-81
2023/01/03 10:51:32;;;;;;;9.82;4.88;;;14.50;60.50;;;;;;4886519;29;20082;-81
2023/01/03 10:54:19;;;;;;;7.88;4.35;;;14.50;60.20;;;;;;4886618;29;20056;-80
2023/01/03 10:56:52;;;;;;;10.02;5.10;;;14.40;60.60;;;;;;4887405;29;20052;-80
2023/01/03 10:59:56;;;;;;;15.57;4.80;;;14.60;60.90;;;;;;4886496;29;20064;-80
2023/01/03 11:02:22;;;;;;;11.27;4.32;;;14.80;61.50;;;;;;4796402;29;20062;-79
2023/01/03 11:09:19;;;;;;;;;;;;;;;;;;;;;
2023/01/03 11:15:44;;;;;;;12.10;4.07;;;15.30;61.60;;;;;;4685216;30;20529;-81
2023/01/03 11:19:04;;;;;;;;;;;;;;;;;;;;;
2023/01/03 11:22:45;;;;;;;14.75;5.00;;;15.40;65.00;;;;;;4684636;30;20152;-81
2023/01/03 11:29:42;;;;;;;16.63;5.00;;;15.50;64.30;;;;;;4702622;30;20132;-81
2023/01/03 11:32:44;;;;;;;17.83;5.95;;;15.50;64.80;;;;;;4790361;29;20045;-83
2023/01/03 11:35:38;;;;;;;20.10;6.47;;;15.50;64.80;;;;;;4848518;29;20183;-82
2023/01/03 11:38:40;;;;;;;19.95;6.00;;;15.60;64.80;;;;;;4871743;29;20041;-82
2023/01/03 11:41:30;;;;;;;18.90;5.43;;;15.70;65.00;;;;;;4851681;29;20072;-81
2023/01/03 11:44:17;;;;;;;16.83;5.18;;;15.80;65.00;;;;;;4866945;29;20429;-80
2023/01/03 11:47:02;;;;;;;18.55;5.70;;;15.90;64.80;;;;;;4851529;29;20061;-81
2023/01/03 11:49:35;;;;;;;14.15;4.70;;;16.00;65.20;;;;;;4866267;29;20045;-81
2023/01/03 11:52:18;;;;;;;17.13;5.03;;;16.10;65.00;;;;;;4866609;29;20037;-82
2023/01/03 11:55:15;;;;;;;14.63;5.50;;;16.10;65.10;;;;;;4867210;29;20053;-82
2023/01/03 11:57:52;;;;;;;18.95;5.60;;;16.10;64.80;;;;;;4883150;29;20060;-82
2023/01/03 12:00:43;;;;;;;17.40;5.47;;;16.20;64.90;;;;;;4866809;29;20436;-83
2023/01/03 12:03:33;;;;;;;14.90;5.13;;;16.30;65.10;;;;;;4866104;29;20053;-79
2023/01/03 12:06:12;;;;;;;19.30;5.53;;;16.30;65.30;;;;;;4866722;29;20506;-83
2023/01/03 12:08:44;;;;;;;24.35;6.15;;;16.20;65.00;;;;;;4866716;29;20373;-76
2023/01/03 12:11:13;;;;;;;20.98;8.10;;;16.30;65.10;;;;;;4882910;29;20053;-80
2023/01/03 12:13:41;;;;;;;21.23;9.18;;;16.20;64.20;;;;;;4866869;29;20061;-80
2023/01/03 12:16:18;;;;;;;19.65;9.88;;;16.20;63.40;;;;;;4851833;29;20060;-80
2023/01/03 12:19:10;;;;;;;22.15;9.82;;;16.30;63.00;;;;;;4866908;29;20060;-80
2023/01/03 12:21:39;;;;;;;25.45;11.90;;;16.30;62.40;;;;;;4866875;29;20045;-76
2023/01/03 12:24:18;;;;;;;32.50;11.55;;;16.20;62.20;;;;;;4882966;29;20053;-77
2023/01/03 12:26:51;;;;;;;25.42;12.00;;;16.20;61.70;;;;;;4894019;29;20100;-76
2023/01/03 12:30:04;;;;;;;29.77;10.57;;;16.20;62.10;;;;;;4901348;29;20045;-81
2023/01/03 12:32:44;;;;;;;24.83;10.55;;;16.10;62.10;;;;;;4824267;29;20300;-82
2023/01/03 12:35:26;;;;;;;21.42;9.98;;;16.10;62.50;;;;;;4863637;29;20472;-78
2023/01/03 12:37:53;;;;;;;17.30;9.40;;;16.00;62.40;;;;;;4881747;29;20049;-82
2023/01/03 12:40:31;;;;;;;25.35;9.40;;;15.90;62.70;;;;;;4884164;29;20107;-83
2023/01/03 12:43:08;;;;;;;18.60;8.52;;;15.90;62.80;;;;;;4899074;29;20132;-84
2023/01/03 12:45:49;;;;;;;17.23;9.55;;;15.90;63.20;;;;;;4877807;29;20048;-78
2023/01/03 12:48:48;;;;;;;26.08;10.85;;;15.80;63.00;;;;;;4898239;29;20044;-77
2023/01/03 12:51:17;;;;;;;19.45;8.27;;;15.70;62.90;;;;;;4877665;29;20048;-77
2023/01/03 12:53:55;;;;;;;19.30;8.23;;;15.70;63.20;;;;;;4901583;29;20353;-76
2023/01/03 12:56:39;;;;;;;15.70;8.25;;;15.80;63.40;;;;;;4899360;29;20049;-77
2023/01/03 12:59:08;;;;;;;;;;;15.70;63.50;;;;;;4900085;29;20139;-79
2023/01/03 13:01:44;;;;;;;14.27;7.05;;;15.70;63.60;;;;;;4897904;29;19935;-79
2023/01/03 13:04:21;;;;;;;23.45;6.68;;;15.70;63.70;;;;;;4900112;29;20059;-78
2023/01/03 13:07:21;;;;;;;15.02;6.95;;;15.70;63.90;;;;;;4884311;29;20170;-77
2023/01/03 13:09:58;;;;;;;14.60;5.90;;;15.70;64.10;;;;;;4899694;29;20067;-79
2023/01/03 13:12:31;;;;;;;18.70;7.80;;;15.70;64.10;;;;;;4900667;29;20092;-79
2023/01/03 13:15:02;;;;;;;18.15;8.75;;;15.80;64.30;;;;;;4901947;29;20365;-78
2023/01/03 13:17:30;;;;;;;20.88;8.85;;;15.70;62.70;;;;;;4876198;29;20412;-79
2023/01/03 13:20:38;;;;;;;13.15;7.35;;;15.70;62.30;;;;;;4899591;29;20357;-77
2023/01/03 13:23:54;;;;;;;11.45;6.63;;;15.70;61.80;;;;;;4882206;29;20490;-78
2023/01/03 13:26:25;;;;;;;12.80;6.90;;;15.80;62.00;;;;;;4898564;29;20119;-77
2023/01/03 13:29:11;;;;;;;11.05;5.82;;;15.80;62.20;;;;;;4899983;29;20048;-77
2023/01/03 13:31:38;;;;;;;13.10;5.55;;;15.80;62.30;;;;;;4897513;29;20044;-80
2023/01/03 13:34:14;;;;;;;14.13;5.45;;;15.80;62.40;;;;;;4898946;29;20387;-79
2023/01/03 13:37:05;;;;;;;7.70;4.40;;;15.80;62.40;;;;;;4899449;29;20436;-77
2023/01/03 13:40:03;;;;;;;10.52;4.68;;;15.80;62.60;;;;;;4898164;29;20127;-78
2023/01/03 13:42:38;;;;;;;9.82;5.35;;;15.90;62.60;;;;;;4884631;29;20056;-78
2023/01/03 13:45:13;;;;;;;10.05;5.40;;;15.90;62.70;;;;;;4899690;29;20037;-78
2023/01/03 13:47:54;;;;;;;6.85;3.83;;;15.80;62.70;;;;;;4882965;29;20045;-79
2023/01/03 13:50:25;;;;;;;8.48;4.88;;;15.80;62.90;;;;;;4898797;29;20033;-78
2023/01/03 13:53:02;;;;;;;8.18;4.38;;;15.80;63.00;;;;;;4897456;29;20119;-79
2023/01/03 13:55:39;;;;;;;8.40;4.30;;;15.80;63.20;;;;;;4880984;29;20063;-79
2023/01/03 13:58:24;;;;;;;8.57;3.75;;;15.80;63.20;;;;;;4879933;29;20041;-79
2023/01/03 14:00:57;;;;;;;9.38;4.60;;;15.80;63.40;;;;;;4879166;29;20075;-79
2023/01/03 14:03:45;;;;;;;7.38;4.25;;;15.80;63.50;;;;;;4899386;29;20401;-79
2023/01/03 14:06:20;;;;;;;9.80;4.30;;;15.80;63.60;;;;;;4887376;29;20105;-79
2023/01/03 14:09:22;;;;;;;8.73;4.10;;;15.80;63.60;;;;;;4899228;29;20044;-78
2023/01/03 14:12:02;;;;;;;11.30;5.65;;;15.70;63.60;;;;;;4898273;29;20506;-79
2023/01/03 14:14:33;;;;;;;10.85;6.72;;;15.70;63.40;;;;;;4898723;29;20056;-79
2023/01/03 14:17:03;;;;;;;9.88;6.43;;;15.70;63.00;;;;;;4899098;29;20059;-79
2023/01/03 14:19:36;;;;;;;14.50;7.05;;;15.70;62.70;;;;;;4898783;29;20471;-78
2023/01/03 14:22:21;;;;;;;11.07;6.15;;;15.70;62.70;;;;;;4879697;29;20058;-79
2023/01/03 14:24:50;;;;;;;9.02;5.78;;;15.70;62.70;;;;;;4881709;29;20131;-77
2023/01/03 14:27:19;;;;;;;10.15;5.03;;;15.70;62.70;;;;;;4882247;29;20067;-79
2023/01/03 14:29:50;;;;;;;11.65;5.53;;;15.80;62.80;;;;;;4898810;29;20580;-79
2023/01/03 14:32:23;;;;;;;11.13;4.97;;;15.80;62.70;;;;;;4898981;29;20080;-78
2023/01/03 14:34:51;;;;;;;9.68;4.85;;;15.80;62.80;;;;;;4899055;29;20456;-78
2023/01/03 14:37:25;;;;;;;10.48;5.18;;;15.80;62.90;;;;;;4876684;29;20072;-80
2023/01/03 14:40:00;;;;;;;;;;;15.60;63.40;;;;;;4900044;29;20111;-79
2023/01/03 14:42:27;;;;;;;7.90;3.83;;;15.70;63.60;;;;;;4899440;29;19927;-81
2023/01/03 14:45:05;;;;;;;10.57;4.82;;;15.70;63.50;;;;;;4883216;29;20424;-81
2023/01/03 14:47:36;;;;;;;7.78;3.83;;;15.70;63.90;;;;;;4882688;29;20131;-78
2023/01/03 14:50:03;;;;;;;12.48;4.47;;;15.80;64.00;;;;;;4883224;29;20487;-80
2023/01/03 14:52:39;;;;;;;11.25;4.55;;;15.70;64.10;;;;;;4867902;29;20056;-80
2023/01/03 14:55:16;;;;;;;10.35;3.95;;;15.70;64.60;;;;;;4899783;29;20056;-80
2023/01/03 14:57:44;;;;;;;10.65;4.22;;;15.70;64.50;;;;;;4882413;29;20079;-78
2023/01/03 15:00:21;;;;;;;18.25;5.55;;;15.70;65.20;;;;;;4898280;29;20049;-78
2023/01/03 15:02:48;;;;;;;19.70;7.07;;;15.70;64.50;;;;;;4899557;29;20052;-79
2023/01/03 15:05:29;;;;;;;17.70;6.22;;;15.70;64.20;;;;;;4899664;29;20128;-81
2023/01/03 15:08:15;;;;;;;19.35;5.85;;;15.70;64.20;;;;;;4882645;29;20080;-79
2023/01/03 15:10:53;;;;;;;14.43;6.03;;;15.70;64.20;;;;;;4889177;29;20147;-79
2023/01/03 15:13:25;;;;;;;14.02;6.47;;;15.60;63.50;;;;;;4899330;29;20044;-77
2023/01/03 15:15:56;;;;;;;22.02;5.97;;;15.70;64.10;;;;;;4899012;29;20151;-78
2023/01/03 15:18:30;;;;;;;20.27;5.07;;;15.70;64.20;;;;;;4882228;29;20132;-80
2023/01/03 15:21:00;;;;;;;16.35;4.85;;;15.70;64.40;;;;;;4883628;29;20056;-84
2023/01/03 15:23:39;;;;;;;16.13;4.55;;;15.70;64.50;;;;;;4841579;29;20050;-84
2023/01/03 15:26:06;;;;;;;22.85;6.20;;;15.70;64.80;;;;;;4829425;29;20424;-84
2023/01/03 15:28:49;;;;;;;17.48;4.93;;;15.80;64.80;;;;;;4829619;29;20130;-84
2023/01/03 15:31:27;;;;;;;17.88;4.70;;;15.80;64.90;;;;;;4845598;29;20146;-82
2023/01/03 15:34:21;;;;;;;21.35;4.75;;;15.80;64.90;;;;;;4844820;29;20053;-77
2023/01/03 15:37:05;;;;;;;;;;;15.80;64.90;;;;;;4845283;29;20482;-75
2023/01/03 15:39:54;;;;;;;19.10;4.60;;;15.80;65.00;;;;;;4844085;29;20041;-77
2023/01/03 15:45:10;;;;;;;21.83;4.55;;;15.80;65.30;;;;;;4844645;29;20078;-78
2023/01/03 15:47:36;;;;;;;18.98;4.25;;;15.80;65.50;;;;;;4863729;29;20084;-78
2023/01/03 15:50:05;;;;;;;16.42;3.60;;;15.80;65.60;;;;;;4902051;29;20452;-77
2023/01/03 15:52:30;;;;;;;19.63;4.10;;;15.80;65.70;;;;;;4901976;29;20048;-80
2023/01/03 15:54:56;;;;;;;12.07;3.70;;;15.80;65.80;;;;;;4870240;29;20048;-76
2023/01/03 15:57:27;;;;;;;13.23;4.03;;;15.80;65.90;;;;;;4902449;29;20452;-79
2023/01/03 16:00:01;;;;;;;19.50;3.90;;;15.80;65.70;;;;;;4867622;29;20049;-80
2023/01/03 16:02:29;;;;;;;17.48;4.70;;;15.80;65.40;;;;;;4867360;29;20057;-78
2023/01/03 16:04:55;;;;;;;15.88;4.38;;;15.80;65.30;;;;;;4883356;29;20081;-82
2023/01/03 16:07:21;;;;;;;13.35;5.35;;;15.80;65.20;;;;;;4883416;29;20397;-77
2023/01/03 16:09:47;;;;;;;19.65;5.40;;;15.70;65.50;;;;;;4884116;29;20056;-81
2023/01/03 16:12:25;;;;;;;22.42;7.90;;;15.80;65.80;;;;;;4902008;29;20123;-78
2023/01/03 16:15:15;;;;;;;29.15;6.47;;;15.70;66.50;;;;;;4885229;29;20485;-77
2023/01/03 16:17:41;;;;;;;16.70;5.88;;;15.70;66.20;;;;;;4900593;29;20487;-79
2023/01/03 16:20:13;;;;;;;14.32;6.40;;;15.70;67.00;;;;;;4901736;29;20076;-78
2023/01/03 16:22:40;;;;;;;14.60;6.28;;;15.80;66.80;;;;;;4901931;29;20151;-75
2023/01/03 16:25:13;;;;;;;21.02;6.25;;;15.80;68.00;;;;;;4901627;29;20048;-72
2023/01/03 16:27:38;;;;;;;15.18;5.88;;;15.80;66.90;;;;;;4901253;29;20075;-82
2023/01/03 16:30:04;;;;;;;15.70;6.45;;;15.80;66.20;;;;;;4901180;29;20045;-78
2023/01/03 16:32:32;;;;;;;20.17;6.72;;;15.90;65.70;;;;;;4885344;29;20052;-82
2023/01/03 16:35:13;;;;;;;18.75;6.40;;;15.80;65.10;;;;;;4885488;29;20091;-82
2023/01/03 16:37:39;;;;;;;15.75;6.13;;;15.80;65.00;;;;;;4884720;29;20055;-83
2023/01/03 16:40:14;;;;;;;17.05;6.13;;;15.80;65.60;;;;;;4884296;29;20046;-82
2023/01/03 16:42:42;;;;;;;15.00;5.85;;;15.80;66.90;;;;;;4869585;29;20045;-82
2023/01/03 16:45:09;;;;;;;14.70;5.60;;;15.80;67.50;;;;;;4868597;29;20060;-82
2023/01/03 16:47:38;;;;;;;19.80;5.78;;;15.80;68.30;;;;;;4869283;29;20052;-81
2023/01/03 16:50:14;;;;;;;15.25;5.32;;;15.80;68.90;;;;;;4901142;29;20356;-81
2023/01/03 16:52:43;;;;;;;15.43;5.90;;;15.80;69.80;;;;;;4884427;29;20464;-81
2023/01/03 16:55:38;;;;;;;21.77;5.13;;;15.80;69.70;;;;;;4868440;29;20102;-82
2023/01/03 16:58:05;;;;;;;11.60;4.68;;;15.80;70.00;;;;;;4900337;29;20044;-83
2023/01/03 17:00:37;;;;;;;21.52;5.53;;;15.70;69.50;;;;;;4883643;29;20044;-81
2023/01/03 17:03:03;;;;;;;16.25;4.35;;;15.70;69.90;;;;;;4884269;29;20047;-80
2023/01/03 17:05:36;;;;;;;13.18;4.53;;;15.70;70.00;;;;;;4884412;29;20048;-81
2023/01/03 17:08:24;;;;;;;21.58;3.78;;;15.70;70.20;;;;;;4884539;29;20040;-80
2023/01/03 17:10:53;;;;;;;22.08;5.20;;;15.70;70.50;;;;;;4884655;29;20087;-82
2023/01/03 17:13:31;;;;;;;19.13;4.25;;;15.70;70.30;;;;;;4901320;29;20052;-77
2023/01/03 17:15:58;;;;;;;17.05;4.07;;;15.70;70.30;;;;;;4900678;29;20047;-79
2023/01/03 17:18:27;;;;;;;13.70;3.88;;;15.70;69.90;;;;;;4883145;29;20119;-80
2023/01/03 17:21:04;;;;;;;14.10;3.67;;;15.70;69.10;;;;;;4900175;29;20334;-79
2023/01/03 17:23:36;;;;;;;14.80;4.47;;;15.50;68.80;;;;;;4900817;29;20064;-76
2023/01/03 17:26:02;;;;;;;13.18;3.55;;;15.50;69.20;;;;;;4899994;29;20384;-79
2023/01/03 17:28:28;;;;;;;12.70;3.72;;;15.50;69.40;;;;;;4900132;29;20063;-76
2023/01/03 17:30:55;;;;;;;13.70;3.55;;;15.50;69.60;;;;;;4900272;29;20049;-78
2023/01/03 17:33:23;;;;;;;16.48;3.70;;;15.40;69.50;;;;;;4884384;29;20048;-77
2023/01/03 17:35:51;;;;;;;15.05;4.00;;;15.40;69.50;;;;;;4900736;29;20060;-79
2023/01/03 17:38:17;;;;;;;12.13;3.35;;;15.40;69.50;;;;;;4900651;29;20052;-77
2023/01/03 17:40:46;;;;;;;14.23;3.28;;;15.40;69.50;;;;;;4900073;29;20106;-77
2023/01/03 17:43:23;;;;;;;9.10;3.03;;;15.40;69.50;;;;;;4884105;29;20044;-75
2023/01/03 17:51:23;;;;;;;11.25;3.42;;;15.40;69.50;;;;;;4883974;29;20060;-76
2023/01/03 17:53:50;;;;;;;19.67;4.00;;;15.30;69.60;;;;;;4900779;29;20062;-77
2023/01/03 17:56:18;;;;;;;10.55;3.17;;;15.30;69.60;;;;;;4900620;29;20095;-77
2023/01/03 17:58:47;;;;;;;9.50;2.95;;;15.30;69.50;;;;;;4900396;29;20341;-79
2023/01/03 18:01:14;;;;;;;10.10;2.67;;;15.30;69.60;;;;;;4899999;29;20056;-77
2023/01/03 18:03:40;;;;;;;7.63;2.25;;;15.30;69.50;;;;;;4899848;29;20053;-79
2023/01/03 18:06:21;;;;;;;9.07;2.45;;;15.30;69.50;;;;;;4883642;29;20056;-75
2023/01/03 18:08:47;;;;;;;7.43;3.78;;;15.30;69.20;;;;;;4899880;29;20052;-76
2023/01/03 19:42:46;;;;;;;17.58;3.33;;;14.70;69.00;;;;;;4826583;29;20054;-72
2023/01/03 19:44:24;;;;;;;20.90;5.00;;;14.70;68.20;;;;;;4824079;29;20051;-74
2023/01/03 19:46:50;;;;;;;11.13;3.42;;;14.80;67.60;;;;;;4810890;29;20523;-75
2023/01/03 19:49:17;;;;;;;14.07;3.63;;;14.80;67.10;;;;;;4819113;29;20407;-74
2023/01/03 19:51:42;;;;;;;11.02;3.83;;;14.80;66.70;;;;;;4796117;29;20047;-77
2023/01/03 19:54:08;;;;;;;12.80;3.65;;;14.80;66.30;;;;;;4814368;29;20423;-78
2023/01/03 19:56:36;;;;;;;14.55;3.50;;;14.80;66.00;;;;;;4828390;29;20055;-80
2023/01/03 19:59:02;;;;;;;8.60;3.00;;;14.80;65.70;;;;;;4828049;29;20046;-77
2023/01/03 20:01:28;;;;;;;6.07;2.97;;;14.80;65.40;;;;;;4828097;29;20327;-75
2023/01/03 20:03:54;;;;;;;6.82;3.00;;;14.80;65.20;;;;;;4828078;29;20358;-77
2023/01/03 20:06:20;;;;;;;5.18;2.60;;;14.80;65.10;;;;;;4807631;29;20042;-78
2023/01/03 20:08:46;;;;;;;7.22;2.30;;;14.80;64.90;;;;;;4809973;29;20054;-75
2023/01/03 20:11:16;;;;;;;9.25;3.30;;;14.80;64.70;;;;;;4809299;29;20058;-76
2023/01/03 20:13:41;;;;;;;8.02;3.15;;;14.70;64.60;;;;;;4810334;29;20062;-75
2023/01/03 20:16:09;;;;;;;8.43;3.30;;;14.70;64.50;;;;;;4809830;29;20142;-75
2023/01/03 20:18:35;;;;;;;7.05;2.85;;;14.80;64.40;;;;;;4809900;29;20051;-74
2023/01/03 20:21:19;;;;;;;8.25;3.75;;;14.70;64.30;;;;;;4810050;29;20055;-76
2023/01/03 20:23:57;;;;;;;6.57;3.00;;;14.70;64.20;;;;;;4821092;29;20469;-78
2023/01/03 20:26:29;;;;;;;10.20;2.97;;;14.70;64.40;;;;;;4817325;29;20062;-80
2023/01/03 20:28:56;;;;;;;8.32;3.00;;;14.70;64.70;;;;;;4827733;29;20082;-75
2023/01/03 20:31:23;;;;;;;13.27;3.00;;;14.70;64.80;;;;;;4816527;29;20263;-79
2023/01/03 20:33:49;;;;;;;8.68;2.78;;;14.70;65.00;;;;;;4809747;29;20451;-76
2023/01/03 20:36:20;;;;;;;6.63;2.42;;;14.70;65.20;;;;;;4809694;29;20043;-76
2023/01/03 20:38:48;;;;;;;8.88;2.92;;;14.70;65.40;;;;;;4809307;29;20061;-77
2023/01/03 20:41:16;;;;;;;12.15;2.90;;;14.70;65.70;;;;;;4826123;29;20577;-78
2023/01/03 20:43:42;;;;;;;7.20;3.03;;;14.70;66.40;;;;;;4832261;29;20050;-77
2023/01/03 20:46:21;;;;;;;5.40;2.45;;;14.70;66.90;;;;;;4834345;29;20058;-78
2023/01/03 20:49:00;;;;;;;7.15;2.17;;;14.60;67.40;;;;;;4842627;29;20049;-76
2023/01/03 20:51:26;;;;;;;4.38;1.60;;;14.60;67.90;;;;;;4843481;29;20476;-77
2023/01/03 20:53:52;;;;;;;7.50;2.33;;;14.50;68.00;;;;;;4845140;29;20049;-75
2023/01/03 20:56:18;;;;;;;6.10;2.30;;;14.50;68.10;;;;;;4845236;29;20061;-77
2023/01/03 20:58:43;;;;;;;9.07;2.17;;;14.60;68.20;;;;;;4844437;29;20054;-77
2023/01/03 21:01:09;;;;;;;5.20;1.90;;;14.50;68.10;;;;;;4829038;29;20094;-76
2023/01/03 21:03:37;;;;;;;6.75;2.13;;;14.50;68.20;;;;;;4845155;29;20050;-79